Time;durP1;ratioP1;P1;durP2;ratioP2;P2;SDS_P1;SDS_P2;PMS_P1;PMS_P2;Temp;Humidity;BMP_temperature;BMP_pressure;BME280_temperature;BME280_humidity;BME280_pressure;Samples;Min_cycle;Max_cycle;Signal;HPM_P1;HPM_P2
2021/05/05 00:01:22;;;;;;;1.42;0.40;;;;;;;;;;4935287;28;20044;-60
2021/05/05 00:03:47;;;;;;;1.05;0.55;;;;;;;;;;4936514;28;20039;-60
2021/05/05 00:06:13;;;;;;;1.38;0.50;;;;;;;;;;4935558;28;20040;-60
2021/05/05 00:08:39;;;;;;;0.60;0.60;;;;;;;;;;4934711;28;20095;-60
2021/05/05 00:11:04;;;;;;;1.08;0.50;;;;;;;;;;4934684;28;20135;-60
2021/05/05 00:13:30;;;;;;;2.42;0.65;;;;;;;;;;4941587;28;20043;-60
2021/05/05 00:15:55;;;;;;;1.35;0.60;;;;;;;;;;4935389;28;20033;-59
2021/05/05 00:18:21;;;;;;;1.42;0.60;;;;;;;;;;4934989;28;20096;-60
2021/05/05 00:20:46;;;;;;;0.93;0.43;;;;;;;;;;4934591;28;20056;-60
2021/05/05 00:23:12;;;;;;;1.45;0.70;;;;;;;;;;4935763;28;20036;-60
2021/05/05 00:25:40;;;;;;;0.65;0.40;;;;;;;;;;4936847;28;20050;-60
2021/05/05 00:28:06;;;;;;;1.10;0.60;;;;;;;;;;4938932;28;20064;-61
2021/05/05 00:30:31;;;;;;;1.48;0.60;;;;;;;;;;4940137;28;20333;-61
2021/05/05 00:32:57;;;;;;;1.42;0.57;;;;;;;;;;4939438;28;20044;-60
2021/05/05 00:35:22;;;;;;;0.80;0.40;;;;;;;;;;4938506;28;20219;-60
2021/05/05 00:37:48;;;;;;;1.27;0.68;;;;;;;;;;4938603;28;20038;-61
2021/05/05 00:40:13;;;;;;;1.42;0.50;;;;;;;;;;4939295;28;20040;-61
2021/05/05 00:42:39;;;;;;;1.83;0.60;;;;;;;;;;4937434;28;20036;-60
2021/05/05 00:45:07;;;;;;;1.10;0.60;;;;;;;;;;4939353;28;20074;-61
2021/05/05 00:47:33;;;;;;;0.60;0.50;;;;;;;;;;4938247;28;20080;-60
2021/05/05 00:49:58;;;;;;;1.02;0.60;;;;;;;;;;4937834;28;20466;-60
2021/05/05 00:52:24;;;;;;;2.00;0.60;;;;;;;;;;4938172;28;27533;-61
2021/05/05 00:54:50;;;;;;;1.65;0.70;;;;;;;;;;4936126;28;20040;-61
2021/05/05 00:57:16;;;;;;;0.88;0.60;;;;;;;;;;4926993;28;20032;-60
2021/05/05 00:59:41;;;;;;;1.08;0.60;;;;;;;;;;4920976;28;20390;-61
2021/05/05 01:02:07;;;;;;;0.75;0.60;;;;;;;;;;4937548;28;20548;-61
2021/05/05 01:04:32;;;;;;;1.90;0.70;;;;;;;;;;4939130;28;20378;-61
2021/05/05 01:06:58;;;;;;;1.20;0.60;;;;;;;;;;4936808;28;20038;-61
2021/05/05 01:09:24;;;;;;;1.63;0.70;;;;;;;;;;4939224;28;20042;-60
2021/05/05 01:11:50;;;;;;;1.70;0.75;;;;;;;;;;4936123;28;20043;-61
2021/05/05 01:14:16;;;;;;;1.50;0.68;;;;;;;;;;4937750;28;20035;-61
2021/05/05 01:16:42;;;;;;;2.55;0.80;;;;;;;;;;4939155;28;20035;-60
2021/05/05 01:19:07;;;;;;;1.30;0.77;;;;;;;;;;4936648;28;20047;-61
2021/05/05 01:21:34;;;;;;;1.10;0.60;;;;;;;;;;4935249;28;20043;-61
2021/05/05 01:24:00;;;;;;;1.13;0.70;;;;;;;;;;4921330;28;20040;-60
2021/05/05 01:26:27;;;;;;;1.63;0.80;;;;;;;;;;4928018;28;20385;-61
2021/05/05 01:28:57;;;;;;;1.40;0.70;;;;;;;;;;4925851;28;20119;-61
2021/05/05 01:31:22;;;;;;;1.13;0.77;;;;;;;;;;4938569;28;20039;-60
2021/05/05 01:33:48;;;;;;;2.42;0.70;;;;;;;;;;4942891;28;20032;-60
2021/05/05 01:36:15;;;;;;;2.03;0.80;;;;;;;;;;4934955;28;20118;-60
2021/05/05 01:38:41;;;;;;;1.63;0.80;;;;;;;;;;4936848;28;20043;-60
2021/05/05 01:41:06;;;;;;;1.42;0.68;;;;;;;;;;4934903;28;20484;-61
2021/05/05 01:43:32;;;;;;;1.40;0.68;;;;;;;;;;4939545;28;20102;-61
2021/05/05 01:45:58;;;;;;;0.95;0.60;;;;;;;;;;4937474;28;20076;-60
2021/05/05 01:48:24;;;;;;;0.65;0.65;;;;;;;;;;4937881;28;20511;-60
2021/05/05 01:50:49;;;;;;;1.63;0.70;;;;;;;;;;4938255;28;20047;-61
2021/05/05 01:53:16;;;;;;;1.45;0.60;;;;;;;;;;4926505;28;20036;-60
2021/05/05 01:55:45;;;;;;;1.52;0.70;;;;;;;;;;4936894;28;20046;-61
2021/05/05 01:58:13;;;;;;;0.90;0.60;;;;;;;;;;4937035;28;20042;-60
2021/05/05 02:00:38;;;;;;;2.08;0.82;;;;;;;;;;4941176;28;20426;-60
2021/05/05 02:03:06;;;;;;;1.05;0.75;;;;;;;;;;4939621;28;20031;-60
2021/05/05 02:05:37;;;;;;;1.35;0.70;;;;;;;;;;4952557;28;20087;-61
2021/05/05 02:08:15;;;;;;;1.58;0.68;;;;;;;;;;4951031;28;20035;-61
2021/05/05 02:10:42;;;;;;;1.83;0.60;;;;;;;;;;4949974;28;20508;-61
2021/05/05 02:13:08;;;;;;;1.70;0.77;;;;;;;;;;4936668;28;20032;-60
2021/05/05 02:15:34;;;;;;;0.82;0.70;;;;;;;;;;4920189;28;20435;-60
2021/05/05 02:18:01;;;;;;;2.03;0.70;;;;;;;;;;4936246;28;20154;-61
2021/05/05 02:20:28;;;;;;;0.57;0.50;;;;;;;;;;4941533;28;20043;-60
2021/05/05 02:22:56;;;;;;;1.52;0.80;;;;;;;;;;4937947;28;20067;-61
2021/05/05 02:25:22;;;;;;;1.88;0.70;;;;;;;;;;4936495;28;20040;-60
2021/05/05 02:27:50;;;;;;;1.88;0.70;;;;;;;;;;4935909;28;20036;-60
2021/05/05 02:30:21;;;;;;;2.33;0.80;;;;;;;;;;4951046;28;20040;-60
2021/05/05 02:32:54;;;;;;;1.33;0.75;;;;;;;;;;4913955;28;20501;-60
2021/05/05 02:35:19;;;;;;;1.42;0.95;;;;;;;;;;4936486;28;20031;-61
2021/05/05 02:37:46;;;;;;;1.25;0.82;;;;;;;;;;4919820;28;20051;-60
2021/05/05 02:40:12;;;;;;;1.20;0.70;;;;;;;;;;4937234;28;20044;-61
2021/05/05 02:42:38;;;;;;;1.98;0.90;;;;;;;;;;4934893;28;20107;-61
2021/05/05 02:45:04;;;;;;;1.25;0.70;;;;;;;;;;4934673;28;20044;-61
2021/05/05 02:47:30;;;;;;;0.57;0.55;;;;;;;;;;4943052;28;20139;-60
2021/05/05 02:49:55;;;;;;;1.08;0.60;;;;;;;;;;4925486;28;20088;-60
2021/05/05 02:52:21;;;;;;;1.45;0.65;;;;;;;;;;4941856;28;20032;-60
2021/05/05 02:54:46;;;;;;;1.15;0.70;;;;;;;;;;4937228;28;21144;-61
2021/05/05 02:57:12;;;;;;;0.57;0.50;;;;;;;;;;4936903;28;20508;-61
2021/05/05 02:59:37;;;;;;;1.55;0.70;;;;;;;;;;4935844;28;20149;-60
2021/05/05 03:02:03;;;;;;;0.60;0.55;;;;;;;;;;4937123;28;20036;-60
2021/05/05 03:04:28;;;;;;;1.63;0.70;;;;;;;;;;4936117;28;20048;-60
2021/05/05 03:06:54;;;;;;;0.80;0.63;;;;;;;;;;4935893;28;20034;-60
2021/05/05 03:09:22;;;;;;;0.65;0.40;;;;;;;;;;4942542;28;20667;-61
2021/05/05 03:11:47;;;;;;;1.50;0.68;;;;;;;;;;4941900;28;20067;-61
2021/05/05 03:14:13;;;;;;;1.33;0.60;;;;;;;;;;4935535;28;20033;-60
2021/05/05 03:16:38;;;;;;;0.77;0.50;;;;;;;;;;4920546;28;20074;-60
2021/05/05 03:19:04;;;;;;;1.50;0.43;;;;;;;;;;4920318;28;20491;-61
2021/05/05 03:21:29;;;;;;;0.77;0.50;;;;;;;;;;4935033;28;20048;-61
2021/05/05 03:23:55;;;;;;;0.52;0.50;;;;;;;;;;4937472;28;20043;-61
2021/05/05 03:26:20;;;;;;;0.80;0.60;;;;;;;;;;4936085;28;20519;-61
2021/05/05 03:28:46;;;;;;;0.85;0.60;;;;;;;;;;4934762;28;20646;-60
2021/05/05 03:31:11;;;;;;;0.57;0.50;;;;;;;;;;4934492;28;20078;-61
2021/05/05 03:33:37;;;;;;;0.60;0.50;;;;;;;;;;4936083;28;20024;-60
2021/05/05 03:36:03;;;;;;;0.85;0.60;;;;;;;;;;4934639;28;20746;-61
2021/05/05 03:38:28;;;;;;;1.08;0.60;;;;;;;;;;4935604;28;20535;-60
2021/05/05 03:40:54;;;;;;;0.93;0.60;;;;;;;;;;4935331;28;20200;-60
2021/05/05 03:43:19;;;;;;;1.38;0.80;;;;;;;;;;4936143;28;20519;-61
2021/05/05 03:45:45;;;;;;;1.55;0.70;;;;;;;;;;4932876;28;20070;-61
2021/05/05 03:48:11;;;;;;;0.85;0.68;;;;;;;;;;4936798;28;20028;-60
2021/05/05 03:50:36;;;;;;;1.00;0.70;;;;;;;;;;4919188;28;20050;-61
2021/05/05 03:53:02;;;;;;;1.65;0.80;;;;;;;;;;4935382;28;20038;-61
2021/05/05 03:55:27;;;;;;;1.00;0.70;;;;;;;;;;4937426;28;20055;-61
2021/05/05 03:57:53;;;;;;;1.90;0.90;;;;;;;;;;4936411;28;20039;-61
2021/05/05 04:00:19;;;;;;;0.85;0.80;;;;;;;;;;4918456;28;20084;-60
2021/05/05 04:02:44;;;;;;;1.73;0.60;;;;;;;;;;4938441;28;20075;-61
2021/05/05 04:05:10;;;;;;;1.08;0.70;;;;;;;;;;4937657;28;20035;-60
2021/05/05 04:07:36;;;;;;;1.38;0.90;;;;;;;;;;4938584;28;20024;-60
2021/05/05 04:10:03;;;;;;;1.58;0.98;;;;;;;;;;4938026;28;20425;-60
2021/05/05 04:12:29;;;;;;;1.40;0.80;;;;;;;;;;4939627;28;20035;-60
2021/05/05 04:14:56;;;;;;;0.80;0.80;;;;;;;;;;4943825;28;20036;-60
2021/05/05 04:17:21;;;;;;;1.42;1.00;;;;;;;;;;4938060;28;20042;-60
2021/05/05 04:19:47;;;;;;;1.73;0.95;;;;;;;;;;4921016;28;20043;-61
2021/05/05 04:22:12;;;;;;;0.98;0.80;;;;;;;;;;4937410;28;20052;-61
2021/05/05 04:24:38;;;;;;;1.20;0.90;;;;;;;;;;4919647;28;21199;-61
2021/05/05 04:27:03;;;;;;;1.48;0.90;;;;;;;;;;4936136;28;20044;-61
2021/05/05 04:29:29;;;;;;;1.50;0.90;;;;;;;;;;4937421;28;20067;-61
2021/05/05 04:31:54;;;;;;;1.92;1.00;;;;;;;;;;4937031;28;20036;-61
2021/05/05 04:34:20;;;;;;;1.85;1.05;;;;;;;;;;4936989;28;20442;-61
2021/05/05 04:36:46;;;;;;;1.23;0.90;;;;;;;;;;4935984;28;20386;-60
2021/05/05 04:39:11;;;;;;;1.05;0.80;;;;;;;;;;4939501;28;20028;-60
2021/05/05 04:41:37;;;;;;;1.40;1.00;;;;;;;;;;4937606;28;20876;-61
2021/05/05 04:44:02;;;;;;;0.98;0.77;;;;;;;;;;4951657;28;20028;-61
2021/05/05 04:46:28;;;;;;;1.50;0.90;;;;;;;;;;4937148;28;20043;-60
2021/05/05 04:48:53;;;;;;;1.58;0.80;;;;;;;;;;4941934;28;20480;-60
2021/05/05 04:51:19;;;;;;;1.48;1.00;;;;;;;;;;4937640;28;20095;-61
2021/05/05 04:53:45;;;;;;;1.58;0.77;;;;;;;;;;4935873;28;20044;-60
2021/05/05 04:56:10;;;;;;;0.73;0.68;;;;;;;;;;4935229;28;20039;-60
2021/05/05 04:58:36;;;;;;;1.10;0.60;;;;;;;;;;4936902;28;20473;-60
2021/05/05 05:01:02;;;;;;;0.80;0.65;;;;;;;;;;4920951;28;20607;-60
2021/05/05 05:03:27;;;;;;;1.45;0.70;;;;;;;;;;4936726;28;20587;-61
2021/05/05 05:05:53;;;;;;;1.20;0.60;;;;;;;;;;4934241;28;20043;-61
2021/05/05 05:08:18;;;;;;;1.70;0.80;;;;;;;;;;4936683;28;20095;-61
2021/05/05 05:10:44;;;;;;;0.93;0.80;;;;;;;;;;4936970;28;20035;-61
2021/05/05 05:13:09;;;;;;;0.98;0.75;;;;;;;;;;4934509;28;20040;-61
2021/05/05 05:15:35;;;;;;;0.95;0.52;;;;;;;;;;4938352;28;20039;-60
2021/05/05 05:18:01;;;;;;;0.57;0.55;;;;;;;;;;4937625;28;20068;-60
2021/05/05 05:20:26;;;;;;;0.98;0.68;;;;;;;;;;4936598;28;20032;-60
2021/05/05 05:22:55;;;;;;;1.33;0.60;;;;;;;;;;4936743;28;20063;-60
2021/05/05 05:25:21;;;;;;;0.75;0.52;;;;;;;;;;4942068;28;20031;-60
2021/05/05 05:27:46;;;;;;;1.00;0.60;;;;;;;;;;4950892;28;20040;-61
2021/05/05 05:30:12;;;;;;;1.02;0.70;;;;;;;;;;4936015;28;20032;-60
2021/05/05 05:32:38;;;;;;;1.70;0.90;;;;;;;;;;4941166;28;20095;-60
2021/05/05 05:35:04;;;;;;;0.80;0.70;;;;;;;;;;4935559;28;20438;-60
2021/05/05 05:37:29;;;;;;;1.52;0.70;;;;;;;;;;4935873;28;20032;-61
2021/05/05 05:39:55;;;;;;;0.80;0.80;;;;;;;;;;4937148;28;20071;-61
2021/05/05 05:42:20;;;;;;;2.15;0.98;;;;;;;;;;4936549;28;20059;-60
2021/05/05 05:44:46;;;;;;;1.73;1.00;;;;;;;;;;4936947;28;20051;-60
2021/05/05 05:47:11;;;;;;;1.38;0.90;;;;;;;;;;4925934;28;20083;-60
2021/05/05 05:49:36;;;;;;;0.95;0.80;;;;;;;;;;4952578;28;20485;-61
2021/05/05 05:52:02;;;;;;;1.80;0.93;;;;;;;;;;4937437;28;20509;-61
2021/05/05 05:54:28;;;;;;;0.88;0.50;;;;;;;;;;4937697;28;20036;-61
2021/05/05 05:56:53;;;;;;;0.52;0.50;;;;;;;;;;4936885;28;20524;-61
2021/05/05 05:59:19;;;;;;;0.65;0.38;;;;;;;;;;4926001;28;20123;-60
2021/05/05 06:01:44;;;;;;;0.68;0.40;;;;;;;;;;4936879;28;20103;-60
2021/05/05 06:04:10;;;;;;;1.45;0.70;;;;;;;;;;4936645;28;20035;-61
2021/05/05 06:06:35;;;;;;;0.77;0.40;;;;;;;;;;4934929;28;20039;-60
2021/05/05 06:09:01;;;;;;;0.80;0.50;;;;;;;;;;4936454;28;20036;-60
2021/05/05 06:11:27;;;;;;;1.15;0.70;;;;;;;;;;4942082;28;20030;-62
2021/05/05 06:13:52;;;;;;;0.55;0.40;;;;;;;;;;4937970;28;20469;-61
2021/05/05 06:16:18;;;;;;;1.30;0.60;;;;;;;;;;4935497;28;20476;-61
2021/05/05 06:18:44;;;;;;;0.82;0.40;;;;;;;;;;4941390;28;20126;-60
2021/05/05 06:21:09;;;;;;;0.70;0.50;;;;;;;;;;4936370;28;20072;-61
2021/05/05 06:23:35;;;;;;;1.05;0.63;;;;;;;;;;4934554;28;20019;-60
2021/05/05 06:26:00;;;;;;;1.65;0.65;;;;;;;;;;4937802;28;20563;-60
2021/05/05 06:28:26;;;;;;;1.55;0.73;;;;;;;;;;4934009;28;20071;-60
2021/05/05 06:30:54;;;;;;;1.50;0.70;;;;;;;;;;4935347;28;20032;-61
2021/05/05 06:33:19;;;;;;;1.17;0.65;;;;;;;;;;4938575;28;20103;-60
2021/05/05 06:35:45;;;;;;;1.75;0.90;;;;;;;;;;4938767;28;20579;-61
2021/05/05 06:38:10;;;;;;;1.08;0.80;;;;;;;;;;4937641;28;20044;-60
2021/05/05 06:40:36;;;;;;;1.10;0.70;;;;;;;;;;4934896;28;20032;-60
2021/05/05 06:43:02;;;;;;;1.85;0.80;;;;;;;;;;4926152;28;20594;-61
2021/05/05 06:45:27;;;;;;;1.52;0.90;;;;;;;;;;4935758;28;20054;-60
2021/05/05 06:47:53;;;;;;;1.08;0.90;;;;;;;;;;4938037;28;20048;-61
2021/05/05 06:50:19;;;;;;;2.42;1.33;;;;;;;;;;4937200;28;20038;-60
2021/05/05 06:52:45;;;;;;;1.67;1.10;;;;;;;;;;4937146;28;20047;-61
2021/05/05 06:55:11;;;;;;;2.88;1.20;;;;;;;;;;4936354;28;20032;-60
2021/05/05 06:57:36;;;;;;;2.03;1.20;;;;;;;;;;4941621;28;20364;-60
2021/05/05 07:00:05;;;;;;;2.85;1.25;;;;;;;;;;4938634;28;20052;-61
2021/05/05 07:02:30;;;;;;;2.95;1.25;;;;;;;;;;4934988;28;20490;-61
2021/05/05 07:04:57;;;;;;;1.88;1.20;;;;;;;;;;4937135;28;20043;-61
2021/05/05 07:07:23;;;;;;;1.70;1.10;;;;;;;;;;4935039;28;20040;-60
2021/05/05 07:09:50;;;;;;;2.85;1.40;;;;;;;;;;4935574;28;20036;-61
2021/05/05 07:12:16;;;;;;;3.53;1.50;;;;;;;;;;4934655;28;20431;-60
2021/05/05 07:14:41;;;;;;;2.75;1.30;;;;;;;;;;4935525;28;20044;-61
2021/05/05 07:17:07;;;;;;;2.80;1.20;;;;;;;;;;4935600;28;20032;-60
2021/05/05 07:19:32;;;;;;;3.22;1.40;;;;;;;;;;4936732;28;20039;-61
2021/05/05 07:21:58;;;;;;;2.05;1.08;;;;;;;;;;4935220;28;20058;-61
2021/05/05 07:24:23;;;;;;;2.65;1.20;;;;;;;;;;4936015;28;20041;-60
2021/05/05 07:26:49;;;;;;;2.15;1.05;;;;;;;;;;4935308;28;20047;-60
2021/05/05 07:29:14;;;;;;;2.83;0.80;;;;;;;;;;4935368;28;20040;-60
2021/05/05 07:31:39;;;;;;;0.88;0.60;;;;;;;;;;4936273;28;20046;-61
2021/05/05 07:34:05;;;;;;;1.27;0.70;;;;;;;;;;4935782;28;20036;-60
2021/05/05 07:36:31;;;;;;;1.42;0.60;;;;;;;;;;4938135;28;20373;-60
2021/05/05 07:49:19;;;;;;;3.55;1.50;;;;;;;;;;4938652;28;20042;-60
2021/05/05 07:51:45;;;;;;;0.77;0.70;;;;;;;;;;4942634;28;20033;-60
2021/05/05 07:54:11;;;;;;;0.82;0.70;;;;;;;;;;4922213;28;20087;-60
2021/05/05 07:56:36;;;;;;;1.58;1.10;;;;;;;;;;4937143;28;20515;-60
2021/05/05 07:59:02;;;;;;;2.03;1.00;;;;;;;;;;4945432;28;20119;-60
2021/05/05 08:01:31;;;;;;;1.73;1.00;;;;;;;;;;4939744;28;20489;-60
2021/05/05 08:03:57;;;;;;;1.35;0.82;;;;;;;;;;4937445;28;20138;-60
2021/05/05 08:06:23;;;;;;;1.42;0.75;;;;;;;;;;4938517;28;20537;-60
2021/05/05 08:08:49;;;;;;;1.70;0.73;;;;;;;;;;4939939;28;20078;-60
2021/05/05 08:11:15;;;;;;;1.45;0.77;;;;;;;;;;4938517;28;20735;-60
2021/05/05 08:13:41;;;;;;;1.42;0.60;;;;;;;;;;4939469;28;20050;-61
2021/05/05 08:16:06;;;;;;;0.73;0.40;;;;;;;;;;4921051;28;20031;-60
2021/05/05 08:18:32;;;;;;;0.90;0.60;;;;;;;;;;4939649;28;20489;-60
2021/05/05 08:21:01;;;;;;;1.15;0.60;;;;;;;;;;4938359;28;20842;-60
2021/05/05 08:23:26;;;;;;;0.93;0.60;;;;;;;;;;4921966;28;20036;-60
2021/05/05 08:25:52;;;;;;;1.20;0.73;;;;;;;;;;4939642;28;20048;-60
2021/05/05 08:28:17;;;;;;;1.75;0.70;;;;;;;;;;4928224;28;20044;-61
2021/05/05 08:30:43;;;;;;;1.85;0.63;;;;;;;;;;4939220;28;20592;-60
2021/05/05 08:33:09;;;;;;;1.80;0.70;;;;;;;;;;4938686;28;20039;-60
2021/05/05 08:35:35;;;;;;;1.77;0.90;;;;;;;;;;4943308;28;20075;-59
2021/05/05 08:38:00;;;;;;;0.95;0.60;;;;;;;;;;4937157;28;20086;-61
2021/05/05 08:40:26;;;;;;;0.63;0.60;;;;;;;;;;4939700;28;20043;-60
2021/05/05 08:42:51;;;;;;;0.70;0.45;;;;;;;;;;4939606;28;20648;-60
2021/05/05 08:45:23;;;;;;;0.75;0.40;;;;;;;;;;4938383;28;20039;-60
2021/05/05 08:47:50;;;;;;;0.98;0.50;;;;;;;;;;4958310;28;20043;-60
2021/05/05 08:50:17;;;;;;;0.80;0.40;;;;;;;;;;4943938;28;20042;-60
2021/05/05 08:52:43;;;;;;;0.65;0.47;;;;;;;;;;4937760;28;20332;-61
2021/05/05 08:55:09;;;;;;;0.77;0.52;;;;;;;;;;4937198;28;20028;-60
2021/05/05 08:57:35;;;;;;;1.08;0.60;;;;;;;;;;4940137;28;20052;-60
2021/05/05 09:00:00;;;;;;;0.77;0.50;;;;;;;;;;4944081;28;20035;-60
2021/05/05 09:02:27;;;;;;;1.25;0.60;;;;;;;;;;4938462;28;20446;-61
2021/05/05 09:04:56;;;;;;;1.60;0.77;;;;;;;;;;4939006;28;20042;-60
2021/05/05 09:07:32;;;;;;;1.38;0.80;;;;;;;;;;4927099;28;20123;-60
2021/05/05 09:10:06;;;;;;;1.45;0.93;;;;;;;;;;4937632;28;20071;-61
2021/05/05 09:12:36;;;;;;;1.65;1.00;;;;;;;;;;4939152;28;20039;-61
2021/05/05 09:15:14;;;;;;;2.67;1.50;;;;;;;;;;4936175;28;20630;-60
2021/05/05 09:17:54;;;;;;;2.08;1.48;;;;;;;;;;4937626;28;20040;-60
2021/05/05 09:20:22;;;;;;;1.98;1.35;;;;;;;;;;4936110;28;20582;-60
2021/05/05 09:22:49;;;;;;;2.75;1.33;;;;;;;;;;4937839;28;20044;-60
2021/05/05 09:25:22;;;;;;;1.70;1.20;;;;;;;;;;4936809;28;20512;-60
2021/05/05 09:28:15;;;;;;;2.90;1.00;;;;;;;;;;4938682;28;20043;-61
2021/05/05 09:30:43;;;;;;;3.30;1.80;;;;;;;;;;4938694;28;20142;-61
2021/05/05 09:33:09;;;;;;;1.52;0.98;;;;;;;;;;4886617;28;20039;-60
2021/05/05 09:35:38;;;;;;;1.55;0.80;;;;;;;;;;4943761;28;20059;-62
2021/05/05 09:38:09;;;;;;;1.40;1.10;;;;;;;;;;4936733;28;20039;-62
2021/05/05 09:40:35;;;;;;;2.33;1.30;;;;;;;;;;4937501;28;20068;-62
2021/05/05 09:43:16;;;;;;;3.38;1.38;;;;;;;;;;4938797;28;20055;-61
2021/05/05 09:45:42;;;;;;;0.73;0.70;;;;;;;;;;4946157;28;20119;-61
2021/05/05 09:48:08;;;;;;;3.08;1.70;;;;;;;;;;4942694;28;20032;-61
2021/05/05 09:50:35;;;;;;;4.47;2.33;;;;;;;;;;4936439;28;20086;-62
2021/05/05 09:53:31;;;;;;;6.65;3.08;;;;;;;;;;4938161;28;20035;-61
2021/05/05 09:56:03;;;;;;;1.20;0.80;;;;;;;;;;4939122;28;20588;-61
2021/05/05 09:58:42;;;;;;;1.75;1.00;;;;;;;;;;4935622;28;20091;-62
2021/05/05 10:01:09;;;;;;;2.05;0.90;;;;;;;;;;4942963;28;20051;-62
2021/05/05 10:04:07;;;;;;;2.60;1.50;;;;;;;;;;4938190;28;20059;-61
2021/05/05 10:06:39;;;;;;;2.17;1.10;;;;;;;;;;4945055;28;20052;-62
2021/05/05 10:09:10;;;;;;;1.10;0.80;;;;;;;;;;4940518;28;20043;-62
2021/05/05 10:11:37;;;;;;;2.05;1.00;;;;;;;;;;4942667;28;20044;-62
2021/05/05 10:14:10;;;;;;;1.48;1.00;;;;;;;;;;4934851;28;20092;-61
2021/05/05 10:16:42;;;;;;;2.08;1.13;;;;;;;;;;4933555;28;20532;-62
2021/05/05 10:19:15;;;;;;;2.38;0.98;;;;;;;;;;4935188;28;20100;-62
2021/05/05 10:21:47;;;;;;;1.27;1.00;;;;;;;;;;4922567;28;20055;-61
2021/05/05 10:24:13;;;;;;;1.52;1.02;;;;;;;;;;4924815;28;20063;-62
2021/05/05 10:26:40;;;;;;;2.70;1.10;;;;;;;;;;4934327;28;20040;-61
2021/05/05 10:29:06;;;;;;;1.40;0.90;;;;;;;;;;4934884;28;20464;-62
2021/05/05 10:31:33;;;;;;;1.65;0.90;;;;;;;;;;4936314;28;20035;-62
2021/05/05 10:34:00;;;;;;;2.28;1.00;;;;;;;;;;4919023;28;20154;-62
2021/05/05 10:36:33;;;;;;;2.63;1.42;;;;;;;;;;4926313;28;20036;-62
2021/05/05 10:38:59;;;;;;;2.80;1.15;;;;;;;;;;4936877;28;20047;-62
2021/05/05 10:41:24;;;;;;;2.67;1.27;;;;;;;;;;4941964;28;20112;-62
2021/05/05 10:43:51;;;;;;;2.25;0.90;;;;;;;;;;4941887;28;20039;-62
2021/05/05 10:46:31;;;;;;;2.05;0.93;;;;;;;;;;4940983;28;20067;-62
2021/05/05 10:49:14;;;;;;;1.70;1.05;;;;;;;;;;4937292;28;20047;-62
2021/05/05 10:51:46;;;;;;;3.42;1.48;;;;;;;;;;4936474;28;20063;-62
2021/05/05 10:54:15;;;;;;;2.85;1.20;;;;;;;;;;4936770;28;20051;-62
2021/05/05 10:56:40;;;;;;;2.78;1.00;;;;;;;;;;4934001;28;20119;-61
2021/05/05 10:59:07;;;;;;;1.90;1.02;;;;;;;;;;4935606;28;20484;-61
2021/05/05 11:01:40;;;;;;;2.67;1.15;;;;;;;;;;4934099;28;20448;-61
2021/05/05 11:04:06;;;;;;;2.60;1.10;;;;;;;;;;4950333;28;20032;-61
2021/05/05 11:06:35;;;;;;;1.85;0.90;;;;;;;;;;4920279;28;20035;-61
2021/05/05 11:09:10;;;;;;;1.13;0.93;;;;;;;;;;4938892;28;20043;-61
2021/05/05 11:11:36;;;;;;;1.77;0.80;;;;;;;;;;4937927;28;20036;-61
2021/05/05 11:14:02;;;;;;;2.17;0.90;;;;;;;;;;4936121;28;20138;-61
2021/05/05 11:16:59;;;;;;;2.80;1.02;;;;;;;;;;4926609;28;20039;-61
2021/05/05 11:19:37;;;;;;;2.72;0.98;;;;;;;;;;4937655;28;20040;-61
2021/05/05 11:22:23;;;;;;;1.52;0.90;;;;;;;;;;4937323;28;20052;-61
2021/05/05 11:24:49;;;;;;;2.13;0.90;;;;;;;;;;4938075;28;20475;-62
2021/05/05 11:27:15;;;;;;;1.30;0.70;;;;;;;;;;4931063;28;20031;-61
2021/05/05 11:29:42;;;;;;;1.30;0.80;;;;;;;;;;4940509;28;20104;-62
2021/05/05 11:32:14;;;;;;;1.48;0.80;;;;;;;;;;4935680;28;20044;-61
2021/05/05 11:34:41;;;;;;;1.48;0.60;;;;;;;;;;4933614;28;20044;-62
2021/05/05 11:37:14;;;;;;;1.85;0.68;;;;;;;;;;4933535;28;20039;-61
2021/05/05 11:39:48;;;;;;;1.50;0.70;;;;;;;;;;4920128;28;20530;-61
2021/05/05 11:42:23;;;;;;;1.60;0.73;;;;;;;;;;4917726;28;20048;-61
2021/05/05 11:44:53;;;;;;;0.95;0.50;;;;;;;;;;4945336;28;20592;-61
2021/05/05 11:47:21;;;;;;;1.55;0.60;;;;;;;;;;4934180;28;20393;-61
2021/05/05 11:49:57;;;;;;;1.00;0.60;;;;;;;;;;4940660;28;21122;-62
2021/05/05 11:52:31;;;;;;;2.58;0.70;;;;;;;;;;4943365;28;20378;-62
2021/05/05 11:54:58;;;;;;;1.85;0.70;;;;;;;;;;4936317;28;20091;-62
2021/05/05 11:57:25;;;;;;;1.67;0.57;;;;;;;;;;4937437;28;20035;-61
2021/05/05 11:59:51;;;;;;;0.93;0.43;;;;;;;;;;4933824;28;20508;-61
2021/05/05 12:02:17;;;;;;;1.65;0.80;;;;;;;;;;4936012;28;20079;-61
2021/05/05 12:04:43;;;;;;;1.42;0.63;;;;;;;;;;4921439;28;20052;-61
2021/05/05 12:07:10;;;;;;;1.92;0.80;;;;;;;;;;4934728;28;20038;-62
2021/05/05 12:09:40;;;;;;;2.50;1.50;;;;;;;;;;4935608;28;20036;-61
2021/05/05 12:12:20;;;;;;;1.77;0.90;;;;;;;;;;4934371;28;20046;-62
2021/05/05 12:14:59;;;;;;;1.13;0.60;;;;;;;;;;4933394;28;20475;-62
2021/05/05 12:17:33;;;;;;;1.38;0.65;;;;;;;;;;4935713;28;20044;-62
2021/05/05 12:20:10;;;;;;;2.22;0.80;;;;;;;;;;4925999;28;20063;-62
2021/05/05 12:22:37;;;;;;;1.52;0.77;;;;;;;;;;4927100;28;20088;-62
2021/05/05 12:25:17;;;;;;;0.95;0.70;;;;;;;;;;4938394;28;20040;-62
2021/05/05 12:28:03;;;;;;;1.35;0.65;;;;;;;;;;4937342;28;20035;-62
2021/05/05 12:30:42;;;;;;;1.75;0.57;;;;;;;;;;4938628;28;20043;-61
2021/05/05 12:33:08;;;;;;;1.30;0.60;;;;;;;;;;4938817;28;20316;-61
2021/05/05 12:35:35;;;;;;;0.43;0.40;;;;;;;;;;4928510;28;20404;-61
2021/05/05 12:38:05;;;;;;;1.10;0.40;;;;;;;;;;4943619;28;20040;-61
2021/05/05 12:40:30;;;;;;;1.00;0.60;;;;;;;;;;4937709;28;20040;-61
2021/05/05 12:43:09;;;;;;;3.28;1.58;;;;;;;;;;4937837;28;20216;-61
2021/05/05 12:45:34;;;;;;;1.13;0.70;;;;;;;;;;4936487;28;20091;-61
2021/05/05 12:48:00;;;;;;;1.50;0.80;;;;;;;;;;4941431;28;20069;-61
2021/05/05 12:50:26;;;;;;;1.38;0.63;;;;;;;;;;4942500;28;20048;-61
2021/05/05 12:52:51;;;;;;;2.28;0.80;;;;;;;;;;4911156;28;20193;-61
2021/05/05 12:55:23;;;;;;;1.77;0.90;;;;;;;;;;4937106;28;20035;-60
2021/05/05 12:58:10;;;;;;;1.83;0.77;;;;;;;;;;4937064;28;20044;-60
2021/05/05 13:00:39;;;;;;;0.73;0.40;;;;;;;;;;4938600;28;20043;-60
2021/05/05 13:03:09;;;;;;;0.85;0.40;;;;;;;;;;4920245;28;20299;-60
2021/05/05 13:05:54;;;;;;;0.47;0.40;;;;;;;;;;4943522;28;20042;-60
2021/05/05 13:08:28;;;;;;;1.50;0.40;;;;;;;;;;4952423;28;20505;-60
2021/05/05 13:10:54;;;;;;;1.38;0.40;;;;;;;;;;4946239;28;20044;-61
2021/05/05 13:13:23;;;;;;;0.40;0.30;;;;;;;;;;4936333;28;20031;-61
2021/05/05 13:18:36;;;;;;;0.60;0.40;;;;;;;;;;4939101;28;20082;-60
2021/05/05 13:32:42;;;;;;;1.45;0.50;;;;;;;;;;4936513;28;20471;-61
2021/05/05 13:35:28;;;;;;;1.23;0.60;;;;;;;;;;4935550;28;20051;-61
2021/05/05 13:38:13;;;;;;;0.88;0.43;;;;;;;;;;4941547;28;20504;-65
2021/05/05 13:40:51;;;;;;;1.50;0.70;;;;;;;;;;4936286;28;20772;-61
2021/05/05 13:43:31;;;;;;;0.85;0.52;;;;;;;;;;4936420;28;20043;-62
2021/05/05 13:51:15;;;;;;;1.40;0.60;;;;;;;;;;4937545;28;20485;-62
2021/05/05 13:53:46;;;;;;;3.15;0.60;;;;;;;;;;4936145;28;20059;-62
2021/05/05 13:56:12;;;;;;;0.75;0.40;;;;;;;;;;4939348;28;20036;-62
2021/05/05 13:58:37;;;;;;;0.57;0.30;;;;;;;;;;4938242;28;20481;-62
2021/05/05 14:01:03;;;;;;;1.95;0.60;;;;;;;;;;4938278;28;20058;-63
2021/05/05 14:03:28;;;;;;;0.88;0.50;;;;;;;;;;4937666;28;20225;-62
2021/05/05 14:05:58;;;;;;;0.40;0.35;;;;;;;;;;4939446;28;20055;-61
2021/05/05 14:08:24;;;;;;;1.23;0.40;;;;;;;;;;4938881;28;20514;-61
2021/05/05 14:10:50;;;;;;;0.85;0.60;;;;;;;;;;4935889;28;20039;-61
2021/05/05 14:13:16;;;;;;;0.73;0.60;;;;;;;;;;4926609;28;20034;-61
2021/05/05 14:15:42;;;;;;;1.08;0.47;;;;;;;;;;4919778;28;20643;-61
2021/05/05 14:18:07;;;;;;;2.28;0.93;;;;;;;;;;4937638;28;20036;-62
2021/05/05 14:20:34;;;;;;;1.25;0.50;;;;;;;;;;4935774;28;20044;-62
2021/05/05 14:23:00;;;;;;;1.13;0.47;;;;;;;;;;4921237;28;20043;-62
2021/05/05 14:25:25;;;;;;;2.83;0.90;;;;;;;;;;4941889;28;20036;-61
2021/05/05 14:27:52;;;;;;;3.28;0.77;;;;;;;;;;4935929;28;20036;-62
2021/05/05 14:30:18;;;;;;;1.55;0.63;;;;;;;;;;4936305;28;20040;-62
2021/05/05 14:32:45;;;;;;;2.53;0.80;;;;;;;;;;4919294;28;20089;-62
2021/05/05 14:35:13;;;;;;;3.05;1.60;;;;;;;;;;4936230;28;20091;-62
2021/05/05 14:37:40;;;;;;;1.83;0.90;;;;;;;;;;4937328;28;20148;-63
2021/05/05 14:40:06;;;;;;;2.85;1.00;;;;;;;;;;4937676;28;20037;-62
2021/05/05 14:42:42;;;;;;;1.90;0.70;;;;;;;;;;4936143;28;20059;-62
2021/05/05 14:45:22;;;;;;;1.50;0.73;;;;;;;;;;4936994;28;20468;-62
2021/05/05 14:50:14;;;;;;;1.13;0.68;;;;;;;;;;4919048;28;20047;-62
2021/05/05 14:52:39;;;;;;;3.13;1.10;;;;;;;;;;4935181;28;20075;-62
2021/05/05 14:55:05;;;;;;;3.55;1.08;;;;;;;;;;4935539;28;20052;-62
2021/05/05 14:57:34;;;;;;;2.78;0.77;;;;;;;;;;4938607;28;20039;-63
2021/05/05 15:00:01;;;;;;;1.40;0.75;;;;;;;;;;4936226;28;20490;-62
2021/05/05 15:02:26;;;;;;;1.00;0.52;;;;;;;;;;4937777;28;20102;-63
2021/05/05 15:04:52;;;;;;;2.50;0.75;;;;;;;;;;4936716;28;20435;-63
2021/05/05 15:07:17;;;;;;;1.50;0.57;;;;;;;;;;4937660;28;25034;-62
2021/05/05 15:09:53;;;;;;;1.27;0.60;;;;;;;;;;4935915;28;20047;-61
2021/05/05 15:12:29;;;;;;;1.90;0.70;;;;;;;;;;4936235;28;20032;-61
2021/05/05 15:36:01;;;;;;;1.77;0.80;;;;;;;;;;4938377;28;20067;-60
2021/05/05 15:41:35;;;;;;;1.73;0.70;;;;;;;;;;4936567;28;20898;-60
2021/05/05 15:46:49;;;;;;;2.00;0.88;;;;;;;;;;4940130;28;20042;-61